createdAt,value
2018-12-12T00:02:44.425Z,-4.08
2018-12-12T00:05:24.189Z,-4.08
2018-12-12T00:08:05.756Z,-4.01
2018-12-12T00:10:47.616Z,-4.09
2018-12-12T00:13:29.112Z,-4.04
2018-12-12T00:16:11.098Z,-3.90
2018-12-12T00:18:54.926Z,-3.98
2018-12-12T00:21:38.668Z,-4.20
2018-12-12T00:24:19.613Z,-4.36
2018-12-12T00:27:01.358Z,-4.40
2018-12-12T00:29:42.971Z,-4.45
2018-12-12T00:32:22.524Z,-4.35
2018-12-12T00:35:04.153Z,-4.35
2018-12-12T00:37:43.232Z,-4.30
2018-12-12T00:40:24.484Z,-4.29
2018-12-12T00:43:05.664Z,-4.41
2018-12-12T00:45:45.108Z,-4.46
2018-12-12T00:48:26.897Z,-4.51
2018-12-12T00:51:12.691Z,-4.55
2018-12-12T00:53:58.140Z,-4.56
2018-12-12T00:56:39.908Z,-4.41
2018-12-12T00:59:19.012Z,-4.40
2018-12-12T01:01:59.916Z,-4.44
2018-12-12T01:04:43.764Z,-4.46
2018-12-12T01:07:25.110Z,-4.54
2018-12-12T01:10:07.058Z,-4.43
2018-12-12T01:12:48.248Z,-4.39
2018-12-12T01:15:27.788Z,-4.44
2018-12-12T01:18:10.256Z,-4.49
2018-12-12T01:20:52.213Z,-4.69
2018-12-12T01:23:34.945Z,-4.85
2018-12-12T01:26:16.805Z,-4.85
2018-12-12T01:28:58.234Z,-4.93
2018-12-12T01:54:42.569Z,-4.59
2018-12-12T01:57:21.800Z,-4.67
2018-12-12T02:00:05.551Z,-4.71
2018-12-12T02:02:50.488Z,-4.75
2018-12-12T02:05:32.263Z,-4.76
2018-12-12T02:08:13.350Z,-4.87
2018-12-12T02:10:55.028Z,-4.94
2018-12-12T02:13:37.767Z,-4.93
2018-12-12T02:16:20.349Z,-4.93
2018-12-12T02:19:02.077Z,-4.98
2018-12-12T02:21:47.381Z,-4.86
2018-12-12T02:24:33.031Z,-4.71
2018-12-12T02:27:14.060Z,-4.76
2018-12-12T02:29:55.617Z,-4.85
2018-12-12T02:32:55.827Z,-4.92
2018-12-12T02:35:37.005Z,-5.00
2018-12-12T02:41:29.745Z,-5.03
2018-12-12T02:47:36.613Z,-5.12
2018-12-12T02:50:12.482Z,-5.27
2018-12-12T02:53:11.989Z,-5.17
2018-12-12T02:55:47.534Z,-5.10
2018-12-12T02:58:23.092Z,-5.27
2018-12-12T03:04:16.166Z,-5.49
2018-12-12T03:06:59.627Z,-5.53
2018-12-12T03:09:35.302Z,-5.54
2018-12-12T03:12:26.949Z,-5.51
2018-12-12T03:15:09.982Z,-5.53
2018-12-12T03:17:46.832Z,-5.38
2018-12-12T03:20:27.880Z,-5.34
2018-12-12T03:23:07.139Z,-5.20
2018-12-12T03:25:47.265Z,-5.35
2018-12-12T03:28:22.821Z,-5.33
2018-12-12T03:30:58.351Z,-5.32
2018-12-12T03:33:33.889Z,-5.33
2018-12-12T03:36:14.900Z,-5.46
2018-12-12T03:38:56.579Z,-5.34
2018-12-12T03:41:32.625Z,-5.28
2018-12-12T03:44:08.356Z,-5.24
2018-12-12T03:46:44.019Z,-5.22
2018-12-12T03:49:33.837Z,-5.30
2018-12-12T03:52:09.646Z,-5.45
2018-12-12T03:54:45.259Z,-5.52
2018-12-12T03:57:20.904Z,-5.61
2018-12-12T03:59:56.633Z,-5.70
2018-12-12T04:02:32.713Z,-5.58
2018-12-12T04:05:08.698Z,-5.59
2018-12-12T04:07:44.373Z,-5.68
2018-12-12T04:10:19.937Z,-5.70
2018-12-12T04:12:55.565Z,-5.70
2018-12-12T04:15:31.373Z,-5.68
2018-12-12T04:18:29.312Z,-5.64
2018-12-12T04:21:05.024Z,-5.65
2018-12-12T04:23:41.517Z,-5.73
2018-12-12T04:26:18.702Z,-5.88
2018-12-12T04:32:00.105Z,-5.80
2018-12-12T04:34:35.711Z,-5.81
2018-12-12T04:37:11.390Z,-5.74
2018-12-12T04:40:12.869Z,-6.01
2018-12-12T04:42:48.571Z,-6.11
2018-12-12T04:45:29.977Z,-6.07
2018-12-12T04:48:05.576Z,-6.07
2018-12-12T04:50:41.234Z,-6.18
2018-12-12T04:53:17.671Z,-6.25
2018-12-12T04:55:53.271Z,-6.23
2018-12-12T04:58:28.990Z,-6.29
2018-12-12T05:01:04.521Z,-6.50
2018-12-12T05:03:40.377Z,-6.69
2018-12-12T05:06:16.047Z,-6.81
2018-12-12T05:08:58.781Z,-6.88
2018-12-12T05:11:34.409Z,-6.80
2018-12-12T05:14:10.016Z,-6.74
2018-12-12T05:16:45.755Z,-6.78
2018-12-12T05:19:21.541Z,-6.85
2018-12-12T05:21:57.598Z,-6.63
2018-12-12T05:24:33.248Z,-6.42
2018-12-12T05:27:08.904Z,-6.18
2018-12-12T05:29:44.604Z,-5.92
2018-12-12T05:32:20.234Z,-5.73
2018-12-12T05:34:55.807Z,-5.60
2018-12-12T05:37:31.484Z,-5.49
2018-12-12T05:40:07.985Z,-5.36
2018-12-12T05:42:44.029Z,-5.29
2018-12-12T05:45:20.252Z,-5.19
2018-12-12T05:47:55.887Z,-5.09
2018-12-12T05:50:31.480Z,-5.00
2018-12-12T05:53:07.058Z,-4.92
2018-12-12T05:55:42.632Z,-4.88
2018-12-12T05:58:18.995Z,-4.87
2018-12-12T06:00:54.588Z,-4.82
2018-12-12T06:03:31.224Z,-4.77
2018-12-12T06:06:06.906Z,-4.78
2018-12-12T06:08:42.540Z,-4.71
2018-12-12T06:11:18.171Z,-4.70
2018-12-12T06:13:53.758Z,-4.70
2018-12-12T06:16:29.468Z,-4.68
2018-12-12T06:19:05.234Z,-4.75
2018-12-12T06:21:40.875Z,-4.66
2018-12-12T06:24:16.481Z,-4.69
2018-12-12T06:26:52.089Z,-4.67
2018-12-12T06:29:27.717Z,-4.65
2018-12-12T06:32:03.467Z,-4.58
2018-12-12T06:34:39.187Z,-4.60
2018-12-12T06:37:15.100Z,-4.59
2018-12-12T06:39:50.673Z,-4.54
2018-12-12T06:42:26.417Z,-4.51
2018-12-12T06:45:02.123Z,-4.56
2018-12-12T06:47:37.738Z,-4.57
2018-12-12T06:50:13.599Z,-4.51
2018-12-12T06:52:49.131Z,-4.51
2018-12-12T06:55:25.851Z,-4.70
2018-12-12T06:58:01.597Z,-4.80
2018-12-12T07:00:37.301Z,-5.01
2018-12-12T07:03:12.881Z,-4.90
2018-12-12T07:05:48.584Z,-4.89
2018-12-12T07:08:24.129Z,-4.90
2018-12-12T07:10:59.824Z,-4.89
2018-12-12T07:13:35.888Z,-4.91
2018-12-12T07:16:11.858Z,-4.89
2018-12-12T07:18:48.483Z,-4.96
2018-12-12T07:21:24.762Z,-5.06
2018-12-12T07:24:00.365Z,-5.18
2018-12-12T07:26:37.812Z,-5.18
2018-12-12T07:29:13.418Z,-5.24
2018-12-12T07:31:52.887Z,-5.20
2018-12-12T07:34:28.701Z,-5.28
2018-12-12T07:37:04.442Z,-5.35
2018-12-12T07:39:40.022Z,-5.48
2018-12-12T07:42:15.777Z,-5.48
2018-12-12T07:44:51.532Z,-5.40
2018-12-12T07:47:27.101Z,-5.30
2018-12-12T07:50:02.815Z,-5.23
2018-12-12T07:52:38.456Z,-5.28
2018-12-12T07:55:14.061Z,-5.07
2018-12-12T07:57:49.765Z,-4.87
2018-12-12T08:00:25.553Z,-4.89
2018-12-12T08:03:05.404Z,-4.76
2018-12-12T08:05:38.842Z,-4.57
2018-12-12T08:08:15.964Z,-4.41
2018-12-12T08:10:51.730Z,-4.47
2018-12-12T08:13:27.337Z,-4.17
2018-12-12T08:16:03.490Z,-4.00
2018-12-12T08:18:39.205Z,-3.90
2018-12-12T08:21:14.828Z,-3.88
2018-12-12T08:23:50.457Z,-3.80
2018-12-12T08:26:26.260Z,-3.81
2018-12-12T08:29:01.944Z,-4.01
2018-12-12T08:31:37.530Z,-4.36
2018-12-12T08:34:13.403Z,-4.08
2018-12-12T08:36:49.052Z,-4.10
2018-12-12T08:39:24.746Z,-4.33
2018-12-12T08:42:00.364Z,-4.31
2018-12-12T08:44:36.067Z,-4.40
2018-12-12T08:47:11.685Z,-4.53
2018-12-12T08:49:47.321Z,-4.32
2018-12-12T08:52:23.030Z,-4.45
2018-12-12T08:54:58.835Z,-4.61
2018-12-12T08:57:35.531Z,-4.17
2018-12-12T09:00:11.850Z,-3.76
2018-12-12T09:02:47.597Z,-3.70
2018-12-12T09:05:24.358Z,-4.02
2018-12-12T09:08:00.127Z,-4.24
2018-12-12T09:10:35.956Z,-4.27
2018-12-12T09:13:11.605Z,-3.98
2018-12-12T09:15:47.314Z,-4.37
2018-12-12T09:18:22.950Z,-4.06
2018-12-12T09:20:58.771Z,-4.01
2018-12-12T09:23:34.682Z,-4.15
2018-12-12T09:26:10.432Z,-4.10
2018-12-12T09:28:46.173Z,-4.12
2018-12-12T09:31:21.852Z,-3.72
2018-12-12T09:33:57.747Z,-3.79
2018-12-12T09:36:33.469Z,-3.89
2018-12-12T09:39:09.284Z,-3.76
2018-12-12T09:41:44.968Z,-3.44
2018-12-12T09:44:20.765Z,-3.43
2018-12-12T09:46:56.468Z,-3.29
2018-12-12T09:49:32.239Z,-2.81
2018-12-12T09:52:07.959Z,-2.86
2018-12-12T09:54:43.728Z,-2.66
2018-12-12T09:57:19.532Z,-2.12
2018-12-12T09:59:56.251Z,-1.66
2018-12-12T10:02:31.908Z,-2.64
2018-12-12T10:05:07.841Z,-2.48
2018-12-12T10:07:43.704Z,-2.39
2018-12-12T10:10:19.416Z,-2.77
2018-12-12T10:12:55.286Z,-2.38
2018-12-12T10:15:30.928Z,-2.53
2018-12-12T10:18:07.464Z,-2.35
2018-12-12T10:20:43.122Z,-2.54
2018-12-12T10:23:18.840Z,-2.37
2018-12-12T10:25:54.532Z,-2.49
2018-12-12T10:28:30.605Z,-2.33
2018-12-12T10:31:06.576Z,-2.25
2018-12-12T10:33:42.282Z,-2.74
2018-12-12T10:36:17.942Z,-2.59
2018-12-12T10:38:53.616Z,-2.57
2018-12-12T10:41:29.431Z,-2.41
2018-12-12T10:44:05.653Z,-2.45
2018-12-12T10:46:41.345Z,-2.63
2018-12-12T10:51:57.297Z,-1.79
2018-12-12T10:54:33.008Z,-1.18
2018-12-12T10:57:08.729Z,-1.05
2018-12-12T10:59:44.427Z,-1.70
2018-12-12T11:02:25.319Z,-1.86
2018-12-12T11:05:01.300Z,-1.05
2018-12-12T11:07:37.045Z,-0.89
2018-12-12T11:10:12.830Z,-0.85
2018-12-12T11:12:48.520Z,-0.73
2018-12-12T11:15:24.190Z,-0.86
2018-12-12T11:17:59.957Z,-1.38
2018-12-12T11:20:35.632Z,-1.22
2018-12-12T11:23:11.347Z,-1.32
2018-12-12T11:25:47.993Z,-1.23
2018-12-12T11:28:23.885Z,-0.77
2018-12-12T11:30:59.731Z,-0.80
2018-12-12T11:33:35.491Z,-0.99
2018-12-12T11:36:12.187Z,-1.51
2018-12-12T11:38:47.853Z,-1.42
2018-12-12T11:41:23.807Z,-1.41
2018-12-12T11:43:59.572Z,-1.60
2018-12-12T11:46:35.241Z,-0.99
2018-12-12T11:49:10.957Z,-1.19
2018-12-12T11:51:46.657Z,-1.69
2018-12-12T11:54:24.379Z,-1.67
2018-12-12T11:57:00.689Z,-0.87
2018-12-12T11:59:36.514Z,-0.46
2018-12-12T12:02:12.337Z,-0.97
2018-12-12T12:04:48.125Z,-0.87
2018-12-12T12:10:07.861Z,-1.02
2018-12-12T12:12:43.551Z,-1.34
2018-12-12T12:15:19.180Z,-1.52
2018-12-12T12:17:55.740Z,-0.80
2018-12-12T12:20:31.499Z,-1.01
2018-12-12T12:23:07.171Z,-0.65
2018-12-12T12:25:43.018Z,-1.01
2018-12-12T12:28:18.982Z,-1.05
2018-12-12T12:30:54.768Z,-0.95
2018-12-12T12:33:30.506Z,-0.67
2018-12-12T12:36:06.303Z,-0.69
2018-12-12T12:38:41.911Z,-0.82
2018-12-12T12:41:17.589Z,-1.55
2018-12-12T12:43:53.538Z,-1.46
2018-12-12T12:46:29.173Z,-1.70
2018-12-12T12:49:04.973Z,-2.04
2018-12-12T12:51:40.528Z,-2.16
2018-12-12T12:54:16.263Z,-2.26
2018-12-12T12:56:52.137Z,-2.00
2018-12-12T12:59:28.009Z,-1.95
2018-12-12T13:02:03.904Z,-1.83
2018-12-12T13:04:39.573Z,-1.83
2018-12-12T13:07:15.207Z,-1.56
2018-12-12T13:09:50.855Z,-1.47
2018-12-12T13:12:26.541Z,-1.74
2018-12-12T13:15:02.195Z,-1.79
2018-12-12T13:17:37.795Z,-1.74
2018-12-12T13:20:13.723Z,-1.87
2018-12-12T13:22:49.399Z,-1.84
2018-12-12T13:25:25.000Z,-1.79
2018-12-12T13:28:00.696Z,-2.08
2018-12-12T13:30:36.446Z,-1.94
2018-12-12T13:33:12.132Z,-1.97
2018-12-12T13:35:49.707Z,-1.99
2018-12-12T13:38:25.519Z,-1.84
2018-12-12T13:41:01.173Z,-1.91
2018-12-12T13:43:38.013Z,-2.02
2018-12-12T13:46:14.073Z,-2.02
2018-12-12T13:48:49.835Z,-1.91
2018-12-12T13:51:25.522Z,-1.74
2018-12-12T13:54:01.110Z,-1.14
2018-12-12T13:56:36.757Z,-1.11
2018-12-12T13:59:12.436Z,-0.86
2018-12-12T14:01:48.190Z,-0.38
2018-12-12T14:04:23.820Z,-0.06
2018-12-12T14:06:59.391Z,0.08
2018-12-12T14:09:35.191Z,0.15
2018-12-12T14:12:17.190Z,0.33
2018-12-12T14:14:49.380Z,0.20
2018-12-12T14:17:25.580Z,0.18
2018-12-12T14:20:01.401Z,0.21
2018-12-12T14:22:36.962Z,0.33
2018-12-12T14:25:08.085Z,0.21
2018-12-12T14:27:44.763Z,0.22
2018-12-12T14:30:20.584Z,0.23
2018-12-12T14:32:57.374Z,0.26
2018-12-12T14:35:33.056Z,0.30
2018-12-12T14:38:09.461Z,0.24
2018-12-12T14:40:45.224Z,0.39
2018-12-12T14:43:20.995Z,0.51
2018-12-12T14:45:56.701Z,0.56
2018-12-12T14:48:32.339Z,0.59
2018-12-12T14:51:07.975Z,0.51
2018-12-12T14:53:43.558Z,0.46
2018-12-12T14:56:19.298Z,0.39
2018-12-12T14:58:54.960Z,0.37
2018-12-12T15:01:31.209Z,0.39
2018-12-12T15:04:07.403Z,0.35
2018-12-12T15:06:42.979Z,0.25
2018-12-12T15:09:18.773Z,0.26
2018-12-12T15:11:54.355Z,0.25
2018-12-12T15:14:29.971Z,0.22
2018-12-12T15:17:05.852Z,0.20
2018-12-12T15:19:41.553Z,0.20
2018-12-12T15:22:17.488Z,0.09
2018-12-12T15:24:53.144Z,0.03
2018-12-12T15:27:29.026Z,0.13
2018-12-12T15:30:04.977Z,0.10
2018-12-12T15:32:40.513Z,0.06
2018-12-12T15:35:16.324Z,0.16
2018-12-12T15:37:51.962Z,0.01
2018-12-12T15:40:27.889Z,-0.01
2018-12-12T15:43:03.762Z,0.05
2018-12-12T15:45:39.500Z,-0.07
2018-12-12T15:48:15.243Z,0.03
2018-12-12T15:50:50.982Z,-0.01
2018-12-12T15:53:26.579Z,-0.13
2018-12-12T15:56:02.198Z,-0.10
2018-12-12T15:58:37.896Z,-0.11
2018-12-12T16:01:13.499Z,-0.26
2018-12-12T16:03:49.120Z,-0.43
2018-12-12T16:06:24.807Z,-0.59
2018-12-12T16:09:00.485Z,-0.51
2018-12-12T16:11:36.284Z,-0.57
2018-12-12T16:14:15.251Z,-0.76
2018-12-12T16:16:50.987Z,-0.79
2018-12-12T16:19:27.040Z,-0.95
2018-12-12T16:22:02.690Z,-0.96
2018-12-12T16:24:38.259Z,-0.82
2018-12-12T16:27:14.059Z,-0.87
2018-12-12T16:32:32.060Z,-0.82
2018-12-12T16:35:08.258Z,-0.96
2018-12-12T16:37:43.800Z,-1.07
2018-12-12T16:40:19.793Z,-1.11
2018-12-12T16:42:55.640Z,-1.03
2018-12-12T16:45:32.192Z,-1.09
2018-12-12T16:48:07.985Z,-1.18
2018-12-12T16:50:43.538Z,-1.29
2018-12-12T16:53:19.248Z,-1.30
2018-12-12T16:55:54.969Z,-1.43
2018-12-12T16:58:31.342Z,-1.50
2018-12-12T17:01:07.115Z,-1.39
2018-12-12T17:03:42.767Z,-1.43
2018-12-12T17:06:18.461Z,-1.55
2018-12-12T17:08:54.282Z,-1.66
2018-12-12T17:11:30.082Z,-1.54
2018-12-12T17:14:05.951Z,-1.58
2018-12-12T17:16:41.464Z,-1.87
2018-12-12T17:19:17.162Z,-2.00
2018-12-12T17:21:52.874Z,-1.79
2018-12-12T17:24:28.745Z,-1.75
2018-12-12T17:27:04.440Z,-1.56
2018-12-12T17:29:40.059Z,-1.49
2018-12-12T17:32:15.713Z,-0.91
2018-12-12T17:34:51.344Z,-0.59
2018-12-12T17:37:26.928Z,-0.65
2018-12-12T17:40:03.608Z,-0.55
2018-12-12T17:42:39.334Z,-0.73
2018-12-12T17:45:14.979Z,-0.61
2018-12-12T17:47:51.201Z,-0.36
2018-12-12T17:50:26.914Z,-0.48
2018-12-12T17:53:02.618Z,-0.58
2018-12-12T17:55:38.390Z,-0.58
2018-12-12T17:58:14.095Z,-0.69
2018-12-12T18:00:50.576Z,-0.74
2018-12-12T18:03:26.192Z,-0.75
2018-12-12T18:06:01.855Z,-0.61
2018-12-12T18:08:37.373Z,-0.58
2018-12-12T18:11:14.105Z,-0.72
2018-12-12T18:13:49.748Z,-0.72
2018-12-12T18:16:25.404Z,-0.76
2018-12-12T18:19:00.964Z,-0.85
2018-12-12T18:21:36.590Z,-0.81
2018-12-12T18:24:12.361Z,-0.80
2018-12-12T18:26:47.908Z,-0.69
2018-12-12T18:29:23.512Z,-0.64
2018-12-12T18:31:59.173Z,-0.57
2018-12-12T18:34:34.842Z,-0.49
2018-12-12T18:37:10.576Z,-0.33
2018-12-12T18:39:46.267Z,-0.21
2018-12-12T18:42:22.012Z,-0.07
2018-12-12T18:44:57.971Z,0.11
2018-12-12T18:47:34.472Z,0.16
2018-12-12T18:50:11.457Z,0.21
2018-12-12T18:52:47.085Z,0.20
2018-12-12T18:55:22.772Z,-0.07
2018-12-12T18:57:58.407Z,-0.17
2018-12-12T19:00:34.216Z,-0.17
2018-12-12T19:03:09.914Z,-0.18
2018-12-12T19:05:45.641Z,-0.09
2018-12-12T19:08:21.304Z,-0.13
2018-12-12T19:10:57.022Z,-0.12
2018-12-12T19:13:32.681Z,-0.16
2018-12-12T19:16:08.460Z,-0.36
2018-12-12T19:18:44.173Z,-0.46
2018-12-12T19:21:20.427Z,-0.31
2018-12-12T19:23:56.124Z,-0.23
2018-12-12T19:26:32.028Z,-0.15
2018-12-12T19:29:07.858Z,-0.13
2018-12-12T19:31:43.535Z,-0.02
2018-12-12T19:34:19.321Z,-0.03
2018-12-12T19:36:54.905Z,-0.01
2018-12-12T19:39:30.504Z,-0.03
2018-12-12T19:42:06.537Z,-0.12
2018-12-12T19:44:42.115Z,-0.04
2018-12-12T19:47:17.784Z,0.03
2018-12-12T19:49:53.406Z,0.07
2018-12-12T19:52:30.121Z,0.03
2018-12-12T19:55:06.686Z,0.00
2018-12-12T19:57:42.368Z,-0.04
2018-12-12T20:00:18.366Z,0.00
2018-12-12T20:02:54.197Z,-0.10
2018-12-12T20:05:29.893Z,0.00
2018-12-12T20:08:06.018Z,0.02
2018-12-12T20:10:41.569Z,0.08
2018-12-12T20:13:17.256Z,-0.14
2018-12-12T20:15:52.936Z,-0.47
2018-12-12T20:18:29.481Z,-0.52
2018-12-12T20:21:05.183Z,-0.51
2018-12-12T20:23:40.855Z,-0.57
2018-12-12T20:26:16.529Z,-0.72
2018-12-12T20:28:52.192Z,-0.71
2018-12-12T20:31:27.763Z,-0.47
2018-12-12T20:34:03.554Z,-0.32
2018-12-12T20:36:39.158Z,-0.25
2018-12-12T20:39:15.997Z,-0.22
2018-12-12T20:41:52.131Z,-0.20
2018-12-12T20:44:27.720Z,-0.30
2018-12-12T20:47:03.624Z,-0.36
2018-12-12T20:49:39.337Z,-0.33
2018-12-12T20:52:15.237Z,-0.17
2018-12-12T20:54:50.944Z,-0.12
2018-12-12T20:57:26.697Z,-0.07
2018-12-12T21:00:02.502Z,-0.08
2018-12-12T21:02:38.281Z,-0.01
2018-12-12T21:05:15.124Z,-0.05
2018-12-12T21:07:50.733Z,-0.09
2018-12-12T21:10:27.434Z,-0.04
2018-12-12T21:13:03.188Z,-0.03
2018-12-12T21:15:40.833Z,0.15
2018-12-12T21:18:16.876Z,0.17
2018-12-12T21:20:52.595Z,0.13
2018-12-12T21:23:28.408Z,0.10
2018-12-12T21:26:04.698Z,0.09
2018-12-12T21:28:40.348Z,0.10
2018-12-12T21:31:16.103Z,0.02
2018-12-12T21:33:51.928Z,0.00
2018-12-12T21:36:27.574Z,0.12
2018-12-12T21:39:04.746Z,0.03
2018-12-12T21:41:40.388Z,0.06
2018-12-12T21:44:17.952Z,0.13
2018-12-12T21:46:53.871Z,0.13
2018-12-12T21:49:29.521Z,0.00
2018-12-12T21:52:05.348Z,-0.02
2018-12-12T21:54:41.205Z,-0.02
2018-12-12T21:57:16.866Z,-0.09
2018-12-12T21:59:52.489Z,-0.07
2018-12-12T22:02:28.148Z,-0.11
2018-12-12T22:05:04.018Z,0.02
2018-12-12T22:07:40.819Z,0.06
2018-12-12T22:10:12.543Z,0.08
2018-12-12T22:12:48.971Z,0.00
2018-12-12T22:15:24.791Z,0.02
2018-12-12T22:18:00.452Z,0.04
2018-12-12T22:20:35.967Z,0.04
2018-12-12T22:23:11.780Z,0.09
2018-12-12T22:25:47.368Z,0.07
2018-12-12T22:28:23.907Z,-0.02
2018-12-12T22:30:59.751Z,0.07
2018-12-12T22:33:35.324Z,0.01
2018-12-12T22:36:14.100Z,-0.09
2018-12-12T22:38:48.864Z,0.05
2018-12-12T22:41:25.088Z,0.08
2018-12-12T22:44:00.667Z,0.05
2018-12-12T22:46:36.321Z,0.05
2018-12-12T22:49:11.963Z,0.11
2018-12-12T22:51:47.603Z,0.06
2018-12-12T22:54:23.334Z,0.12
2018-12-12T22:56:58.909Z,0.06
2018-12-12T22:59:34.588Z,0.02
2018-12-12T23:02:10.323Z,0.00
2018-12-12T23:04:45.985Z,0.02
2018-12-12T23:07:21.603Z,-0.10
2018-12-12T23:09:57.192Z,-0.04
2018-12-12T23:12:32.832Z,-0.05
2018-12-12T23:15:08.852Z,-0.07
2018-12-12T23:17:44.606Z,-0.07
2018-12-12T23:20:20.264Z,-0.05
2018-12-12T23:22:55.864Z,-0.01
2018-12-12T23:28:12.260Z,0.07
2018-12-12T23:30:48.109Z,0.10
2018-12-12T23:33:24.109Z,0.03
2018-12-12T23:36:00.853Z,0.09
2018-12-12T23:38:36.376Z,0.05
2018-12-12T23:41:12.056Z,0.11
2018-12-12T23:43:47.604Z,0.16
2018-12-12T23:46:24.148Z,0.05
2018-12-12T23:48:59.724Z,0.05
2018-12-12T23:51:35.401Z,-0.04
2018-12-12T23:54:11.976Z,0.13
2018-12-12T23:56:47.672Z,0.07
2018-12-12T23:59:23.248Z,-0.04
